Time;durP1;ratioP1;P1;durP2;ratioP2;P2;SDS_P1;SDS_P2;PMS_P1;PMS_P2;Temp;Humidity;BMP_temperature;BMP_pressure;BME280_temperature;BME280_humidity;BME280_pressure;Samples;Min_cycle;Max_cycle;Signal;HPM_P1;HPM_P2
2023/06/21 00:01:38;;;;;;;14.43;13.02;;;18.50;99.90;;;;;;5072479;28;20064;-70
2023/06/21 00:04:06;;;;;;;17.20;14.02;;;18.50;99.90;;;;;;5086864;28;20131;-69
2023/06/21 00:06:36;;;;;;;17.52;13.93;;;18.40;99.90;;;;;;5088001;28;20531;-70
2023/06/21 00:09:03;;;;;;;15.30;13.60;;;18.40;99.90;;;;;;5087910;28;20554;-67
2023/06/21 00:11:31;;;;;;;16.15;13.68;;;18.40;99.90;;;;;;5082899;28;20073;-69
2023/06/21 00:13:58;;;;;;;17.80;13.85;;;18.50;99.90;;;;;;5083089;28;20409;-70
2023/06/21 00:16:25;;;;;;;18.25;14.30;;;18.50;99.90;;;;;;5072808;28;20051;-70
2023/06/21 00:18:51;;;;;;;19.42;14.73;;;18.40;99.90;;;;;;5070655;28;20073;-70
2023/06/21 00:21:18;;;;;;;21.20;15.45;;;18.40;99.90;;;;;;5083407;28;20036;-68
2023/06/21 00:23:45;;;;;;;15.40;13.50;;;18.30;99.90;;;;;;5086311;28;20257;-69
2023/06/21 00:26:12;;;;;;;15.63;13.18;;;18.30;99.90;;;;;;5075802;28;20521;-68
2023/06/21 00:28:39;;;;;;;16.52;13.35;;;18.30;99.90;;;;;;5072102;28;20136;-68
2023/06/21 00:31:08;;;;;;;16.10;13.75;;;18.10;99.90;;;;;;5071620;28;20068;-68
2023/06/21 00:33:35;;;;;;;18.65;14.52;;;18.10;99.90;;;;;;5063960;28;20047;-69
2023/06/21 00:36:02;;;;;;;18.48;15.02;;;18.10;99.90;;;;;;5072428;28;20036;-69
2023/06/21 00:38:34;;;;;;;26.10;18.33;;;18.10;99.90;;;;;;5074786;28;20047;-68
2023/06/21 00:41:07;;;;;;;22.38;16.58;;;18.10;99.90;;;;;;5071143;28;20044;-69
2023/06/21 00:43:34;;;;;;;23.52;17.42;;;18.10;99.90;;;;;;5069175;28;20425;-67
2023/06/21 00:46:01;;;;;;;23.85;19.33;;;18.20;99.90;;;;;;5061844;28;20035;-68
2023/06/21 00:48:29;;;;;;;25.58;19.83;;;18.20;99.90;;;;;;5067743;28;20660;-71
2023/06/21 00:50:58;;;;;;;23.42;18.20;;;18.20;99.90;;;;;;5067220;28;20070;-69
2023/06/21 00:53:27;;;;;;;25.75;18.77;;;18.20;99.90;;;;;;5068265;28;20054;-70
2023/06/21 00:56:00;;;;;;;24.13;18.70;;;18.20;99.90;;;;;;5071850;28;21204;-69
2023/06/21 00:58:28;;;;;;;22.10;16.55;;;18.30;99.90;;;;;;5091355;28;20639;-70
2023/06/21 01:00:54;;;;;;;21.20;15.70;;;18.20;99.90;;;;;;5063947;28;20169;-70
2023/06/21 01:03:23;;;;;;;22.98;17.25;;;18.10;99.90;;;;;;5066082;28;20497;-70
2023/06/21 01:06:18;;;;;;;22.73;17.45;;;18.00;99.90;;;;;;5083770;28;20071;-70
2023/06/21 01:09:21;;;;;;;20.98;16.88;;;18.00;99.90;;;;;;5070577;28;20113;-68
2023/06/21 01:12:07;;;;;;;25.88;17.52;;;17.80;99.90;;;;;;5082650;28;20082;-68
2023/06/21 01:14:46;;;;;;;24.52;18.20;;;17.80;99.90;;;;;;5065046;28;20075;-67
2023/06/21 01:17:13;;;;;;;30.30;23.58;;;17.70;99.90;;;;;;5087372;28;20036;-69
2023/06/21 01:19:46;;;;;;;30.83;23.23;;;17.80;99.90;;;;;;5081562;28;20040;-71
2023/06/21 01:22:45;;;;;;;26.75;21.60;;;18.00;99.90;;;;;;5086837;28;20040;-70
2023/06/21 01:25:30;;;;;;;33.88;23.50;;;18.00;99.90;;;;;;5085272;28;20066;-69
2023/06/21 01:28:09;;;;;;;35.38;26.08;;;18.10;99.90;;;;;;5086665;28;20664;-70
2023/06/21 01:30:36;;;;;;;32.47;23.92;;;18.10;99.90;;;;;;5083384;28;20052;-70
2023/06/21 01:33:07;;;;;;;36.50;23.73;;;18.10;99.90;;;;;;5063639;28;20059;-69
2023/06/21 01:35:34;;;;;;;31.20;22.80;;;18.10;99.90;;;;;;5071317;28;20093;-71
2023/06/21 01:38:02;;;;;;;35.50;24.25;;;18.10;99.90;;;;;;5059019;28;20521;-70
2023/06/21 01:40:28;;;;;;;29.50;22.63;;;18.20;99.90;;;;;;5084205;28;20043;-70
2023/06/21 01:42:56;;;;;;;33.53;25.05;;;18.20;99.90;;;;;;5062628;28;20044;-68
2023/06/21 01:45:24;;;;;;;37.08;24.02;;;18.30;99.90;;;;;;5068306;28;20498;-69
2023/06/21 01:47:52;;;;;;;34.95;23.90;;;18.40;99.90;;;;;;5063762;28;20112;-69
2023/06/21 01:50:21;;;;;;;34.28;24.50;;;18.40;99.90;;;;;;5087240;28;20061;-69
2023/06/21 01:52:51;;;;;;;34.65;25.73;;;18.40;99.90;;;;;;5084756;28;20109;-69
2023/06/21 01:55:19;;;;;;;41.90;28.02;;;18.50;99.90;;;;;;5066620;28;20040;-69
2023/06/21 01:57:47;;;;;;;39.60;27.75;;;18.50;99.90;;;;;;5055754;28;20089;-69
2023/06/21 02:00:17;;;;;;;41.53;30.20;;;18.60;99.90;;;;;;5072405;28;20058;-69
2023/06/21 02:03:04;;;;;;;50.67;31.27;;;18.60;99.90;;;;;;5068057;28;21053;-69
2023/06/21 02:05:33;;;;;;;44.58;31.73;;;18.70;99.90;;;;;;5087066;28;20044;-68
2023/06/21 02:08:01;;;;;;;50.22;34.10;;;18.60;99.90;;;;;;5081806;28;20132;-68
2023/06/21 02:10:29;;;;;;;48.15;33.70;;;18.70;99.90;;;;;;5045411;28;20043;-69
2023/06/21 02:12:56;;;;;;;50.85;34.15;;;18.60;99.90;;;;;;5064456;28;20056;-69
2023/06/21 02:15:23;;;;;;;50.92;34.83;;;18.60;99.90;;;;;;5074925;28;20047;-68
2023/06/21 02:17:51;;;;;;;53.10;37.65;;;18.60;99.90;;;;;;5068368;28;20060;-69
2023/06/21 02:20:21;;;;;;;61.92;39.33;;;18.50;99.90;;;;;;5084787;28;20067;-68
2023/06/21 02:22:48;;;;;;;61.88;39.05;;;18.50;99.90;;;;;;5063596;28;20058;-68
2023/06/21 02:25:16;;;;;;;66.95;44.92;;;18.50;99.90;;;;;;5073821;28;20043;-68
2023/06/21 02:27:43;;;;;;;68.13;43.33;;;18.50;99.90;;;;;;5078308;28;20032;-70
2023/06/21 02:30:11;;;;;;;65.57;43.58;;;18.60;99.90;;;;;;5073264;28;20144;-69
2023/06/21 02:32:38;;;;;;;80.85;49.20;;;18.60;99.90;;;;;;5081905;28;20044;-68
2023/06/21 02:35:05;;;;;;;75.82;48.35;;;18.60;99.90;;;;;;5080606;28;20075;-69
2023/06/21 02:37:32;;;;;;;88.50;51.47;;;18.60;99.90;;;;;;5063590;28;20047;-69
2023/06/21 02:39:59;;;;;;;107.05;60.58;;;18.70;99.90;;;;;;5078416;28;20039;-70
2023/06/21 02:42:27;;;;;;;108.03;61.53;;;18.70;99.90;;;;;;5085992;28;20131;-69
2023/06/21 02:44:54;;;;;;;127.53;65.55;;;18.70;99.90;;;;;;5082813;28;20581;-69
2023/06/21 02:47:21;;;;;;;128.15;67.38;;;18.70;99.90;;;;;;5069194;28;20035;-70
2023/06/21 02:49:47;;;;;;;132.52;68.03;;;18.60;99.90;;;;;;5076159;28;20140;-69
2023/06/21 02:52:14;;;;;;;123.97;65.47;;;18.60;99.90;;;;;;5085916;28;20093;-69
2023/06/21 02:54:41;;;;;;;136.40;71.45;;;18.60;99.90;;;;;;5084308;28;20047;-68
2023/06/21 02:57:08;;;;;;;135.45;70.22;;;18.60;99.90;;;;;;5077385;28;20394;-69
2023/06/21 02:59:37;;;;;;;124.45;65.00;;;18.60;99.90;;;;;;5071648;28;20658;-69
2023/06/21 03:02:05;;;;;;;131.43;70.22;;;18.50;99.90;;;;;;5077244;28;20107;-69
2023/06/21 03:04:31;;;;;;;128.95;66.93;;;18.50;99.90;;;;;;5086926;28;20600;-70
2023/06/21 03:07:01;;;;;;;130.35;66.80;;;18.50;99.90;;;;;;5085270;28;20693;-70
2023/06/21 03:09:28;;;;;;;137.38;69.43;;;18.50;99.90;;;;;;5077920;28;20050;-69
2023/06/21 03:11:56;;;;;;;144.18;72.15;;;18.60;99.90;;;;;;5069475;28;20040;-70
2023/06/21 03:14:24;;;;;;;135.25;68.45;;;18.50;99.90;;;;;;5077773;28;20754;-70
2023/06/21 03:16:51;;;;;;;133.38;67.40;;;18.60;99.90;;;;;;5051377;28;20078;-70
2023/06/21 03:19:18;;;;;;;142.20;69.45;;;18.50;99.90;;;;;;5068284;28;20835;-70
2023/06/21 03:21:45;;;;;;;138.48;66.82;;;18.60;99.90;;;;;;5069479;28;20114;-70
2023/06/21 03:24:12;;;;;;;131.23;65.60;;;18.50;99.90;;;;;;5077967;28;20039;-70
2023/06/21 03:26:40;;;;;;;108.03;59.70;;;18.50;99.90;;;;;;5071561;28;20050;-69
2023/06/21 03:29:08;;;;;;;114.60;58.85;;;18.40;99.90;;;;;;5077723;28;20050;-69
2023/06/21 03:31:36;;;;;;;107.88;58.25;;;18.40;99.90;;;;;;5076904;28;20124;-69
2023/06/21 03:34:04;;;;;;;103.85;56.28;;;18.30;99.90;;;;;;5058852;28;20101;-69
2023/06/21 03:36:30;;;;;;;103.85;56.65;;;18.30;99.90;;;;;;5073402;28;20090;-70
2023/06/21 03:38:57;;;;;;;100.95;55.53;;;18.30;99.90;;;;;;5073515;28;20051;-69
2023/06/21 03:41:24;;;;;;;105.78;57.45;;;18.20;99.90;;;;;;5086112;28;20097;-69
2023/06/21 03:43:51;;;;;;;106.32;54.63;;;18.20;99.90;;;;;;5067291;28;20671;-69
2023/06/21 03:46:18;;;;;;;102.30;54.50;;;18.20;99.90;;;;;;5080370;28;20775;-69
2023/06/21 03:48:45;;;;;;;100.22;52.83;;;18.20;99.90;;;;;;5053102;28;20051;-69
2023/06/21 03:51:12;;;;;;;105.57;52.00;;;18.20;99.90;;;;;;5057231;28;20052;-70
2023/06/21 03:53:40;;;;;;;114.88;55.67;;;18.20;99.90;;;;;;5070159;28;20508;-68
2023/06/21 03:56:09;;;;;;;121.78;59.72;;;18.10;99.90;;;;;;5076329;28;20067;-69
2023/06/21 03:58:35;;;;;;;118.97;60.42;;;18.20;99.90;;;;;;5090896;28;20117;-69
2023/06/21 04:01:03;;;;;;;115.88;61.22;;;18.20;99.90;;;;;;5069884;28;20044;-69
2023/06/21 04:03:30;;;;;;;126.50;63.30;;;18.10;99.90;;;;;;5057073;28;20043;-69
2023/06/21 04:05:57;;;;;;;110.20;59.00;;;18.20;99.90;;;;;;5073993;28;20048;-69
2023/06/21 04:08:24;;;;;;;107.65;57.75;;;18.20;99.90;;;;;;5077607;28;20043;-69
2023/06/21 04:10:52;;;;;;;98.55;55.58;;;18.20;99.90;;;;;;5087375;28;20068;-70
2023/06/21 04:13:18;;;;;;;105.20;54.85;;;18.20;99.90;;;;;;5085945;28;20044;-70
2023/06/21 04:15:45;;;;;;;92.97;51.38;;;18.20;99.90;;;;;;5066044;28;20857;-69
2023/06/21 04:18:14;;;;;;;101.82;54.83;;;18.20;99.90;;;;;;5083622;28;20040;-69
2023/06/21 04:20:41;;;;;;;96.30;52.13;;;18.20;99.90;;;;;;5058401;28;20096;-69
2023/06/21 04:23:07;;;;;;;87.05;50.38;;;18.30;99.90;;;;;;5055654;28;20048;-69
2023/06/21 04:25:35;;;;;;;80.88;46.88;;;18.30;99.90;;;;;;5060161;28;20036;-69
2023/06/21 04:28:02;;;;;;;68.63;42.70;;;18.20;99.90;;;;;;5072321;28;20520;-68
2023/06/21 04:30:33;;;;;;;74.97;43.65;;;18.20;99.90;;;;;;5055318;28;20051;-69
2023/06/21 04:33:01;;;;;;;61.95;39.33;;;18.40;99.90;;;;;;5063945;28;20043;-69
2023/06/21 04:35:28;;;;;;;63.92;38.45;;;18.40;99.90;;;;;;5085058;28;20702;-69
2023/06/21 04:37:55;;;;;;;59.17;38.25;;;18.40;99.90;;;;;;5052754;28;20109;-68
2023/06/21 04:40:22;;;;;;;56.78;35.45;;;18.50;99.90;;;;;;5050947;28;20046;-69
2023/06/21 04:42:54;;;;;;;52.92;35.33;;;18.50;99.90;;;;;;5082861;28;20048;-69
2023/06/21 04:45:22;;;;;;;46.58;33.75;;;18.50;99.90;;;;;;5088164;28;20048;-69
2023/06/21 04:47:49;;;;;;;47.53;32.92;;;18.60;99.90;;;;;;5087095;28;20043;-68
2023/06/21 04:50:16;;;;;;;44.42;31.33;;;18.60;99.90;;;;;;5063975;28;20043;-69
2023/06/21 04:52:47;;;;;;;36.80;27.27;;;18.80;99.90;;;;;;5066938;28;20157;-70
2023/06/21 04:55:17;;;;;;;37.05;28.70;;;18.80;99.90;;;;;;5084851;28;20047;-68
2023/06/21 04:57:46;;;;;;;35.25;27.55;;;19.00;99.90;;;;;;5085927;28;20039;-68
2023/06/21 05:00:14;;;;;;;33.47;26.85;;;19.10;99.90;;;;;;5064947;28;20044;-68
2023/06/21 05:02:41;;;;;;;33.70;26.23;;;19.20;99.90;;;;;;5085033;28;20101;-68
2023/06/21 05:05:08;;;;;;;30.15;25.15;;;19.30;99.90;;;;;;5067438;28;20436;-69
2023/06/21 05:07:37;;;;;;;35.47;28.13;;;19.40;99.90;;;;;;5077001;28;20423;-69
2023/06/21 05:10:08;;;;;;;36.55;27.67;;;19.50;99.90;;;;;;5092574;28;20051;-68
2023/06/21 05:12:35;;;;;;;34.33;26.33;;;19.50;99.90;;;;;;5095286;28;20040;-68
2023/06/21 05:15:03;;;;;;;29.15;25.98;;;19.50;99.90;;;;;;5081277;28;20044;-68
2023/06/21 05:17:30;;;;;;;30.70;26.90;;;19.70;99.90;;;;;;5099726;28;20054;-69
2023/06/21 05:19:57;;;;;;;32.38;28.05;;;19.80;99.90;;;;;;5089578;28;20076;-69
2023/06/21 05:22:24;;;;;;;30.23;26.75;;;19.80;99.90;;;;;;5095940;28;20040;-67
2023/06/21 05:24:51;;;;;;;30.10;25.90;;;19.70;99.90;;;;;;5084091;28;20093;-67
2023/06/21 05:27:18;;;;;;;33.38;26.35;;;19.70;99.90;;;;;;5084739;28;20112;-69
2023/06/21 05:29:45;;;;;;;30.67;27.38;;;19.90;99.90;;;;;;5084526;28;20044;-69
2023/06/21 05:32:12;;;;;;;33.05;27.60;;;20.00;99.90;;;;;;5078152;28;20044;-69
2023/06/21 05:34:38;;;;;;;31.30;28.00;;;20.00;99.90;;;;;;5087981;28;20737;-68
2023/06/21 05:37:05;;;;;;;29.63;26.52;;;20.00;99.90;;;;;;5077375;28;20101;-69
2023/06/21 05:39:32;;;;;;;33.55;26.85;;;20.00;99.90;;;;;;5068995;28;20410;-69
2023/06/21 05:41:59;;;;;;;31.65;28.10;;;20.00;99.90;;;;;;5061721;28;20040;-69
2023/06/21 05:44:25;;;;;;;29.65;25.77;;;20.10;99.90;;;;;;5084784;28;20047;-68
2023/06/21 05:46:52;;;;;;;30.73;27.38;;;20.10;99.90;;;;;;5080169;28;20127;-69
2023/06/21 05:49:19;;;;;;;31.42;26.73;;;20.10;99.90;;;;;;5083684;28;20067;-69
2023/06/21 05:51:46;;;;;;;29.48;26.52;;;20.30;99.90;;;;;;5076845;28;20147;-70
2023/06/21 05:54:13;;;;;;;32.50;28.42;;;20.40;99.90;;;;;;5079597;28;20048;-69
2023/06/21 05:56:41;;;;;;;31.55;28.25;;;20.40;99.90;;;;;;5083283;28;20122;-69
2023/06/21 05:59:08;;;;;;;31.92;28.90;;;20.30;99.90;;;;;;5079087;28;20079;-69
2023/06/21 06:01:35;;;;;;;29.02;26.13;;;20.30;99.90;;;;;;5089821;28;20036;-69
2023/06/21 06:04:02;;;;;;;29.92;26.65;;;20.10;99.90;;;;;;5084762;28;20147;-69
2023/06/21 06:06:38;;;;;;;30.83;27.67;;;20.00;99.90;;;;;;5082332;28;20048;-70
2023/06/21 06:09:07;;;;;;;28.77;25.85;;;20.00;99.90;;;;;;5081260;28;20687;-69
2023/06/21 06:11:34;;;;;;;28.15;25.33;;;20.00;99.90;;;;;;5080330;28;20043;-69
2023/06/21 06:14:01;;;;;;;30.90;27.48;;;19.90;99.90;;;;;;5081077;28;20051;-70
2023/06/21 06:16:27;;;;;;;29.73;26.52;;;19.90;99.90;;;;;;5083506;28;20048;-69
2023/06/21 06:18:54;;;;;;;29.90;26.85;;;19.90;99.90;;;;;;5080416;28;20040;-69
2023/06/21 06:21:21;;;;;;;29.55;26.45;;;19.90;99.90;;;;;;5079907;28;20077;-69
2023/06/21 06:23:52;;;;;;;29.45;26.50;;;19.70;99.90;;;;;;5073584;28;20594;-69
2023/06/21 06:26:22;;;;;;;28.55;25.75;;;19.80;99.90;;;;;;5077786;28;20576;-70
2023/06/21 06:28:53;;;;;;;28.80;25.88;;;19.80;99.90;;;;;;5084244;28;20047;-69
2023/06/21 06:31:22;;;;;;;26.77;24.13;;;19.80;99.90;;;;;;5082752;28;20605;-70
2023/06/21 06:33:50;;;;;;;28.17;25.30;;;19.70;99.90;;;;;;5080617;28;20704;-70
2023/06/21 06:36:17;;;;;;;24.75;22.38;;;19.70;99.90;;;;;;5064870;28;20040;-69
2023/06/21 06:38:50;;;;;;;27.08;24.02;;;19.70;99.90;;;;;;5080457;28;20112;-69
2023/06/21 06:41:17;;;;;;;26.23;23.73;;;19.70;99.90;;;;;;5085399;28;20043;-69
2023/06/21 06:43:45;;;;;;;24.38;21.92;;;19.70;99.90;;;;;;5070716;28;20745;-68
2023/06/21 06:46:12;;;;;;;24.73;22.60;;;19.80;99.90;;;;;;5081118;28;20028;-70
2023/06/21 06:48:38;;;;;;;24.92;22.65;;;19.80;99.90;;;;;;5086016;28;20036;-69
2023/06/21 06:51:05;;;;;;;24.50;22.27;;;19.90;99.90;;;;;;5081294;28;20123;-70
2023/06/21 06:53:32;;;;;;;25.80;23.58;;;19.90;99.90;;;;;;5093798;28;20035;-71
2023/06/21 06:55:59;;;;;;;25.02;22.88;;;19.90;99.90;;;;;;5067408;28;20110;-67
2023/06/21 06:58:30;;;;;;;23.63;21.38;;;20.00;99.90;;;;;;5075465;28;20176;-67
2023/06/21 07:00:57;;;;;;;24.70;22.52;;;20.20;99.90;;;;;;5084157;28;20040;-69
2023/06/21 07:03:24;;;;;;;24.40;22.27;;;20.30;99.90;;;;;;5085473;28;20060;-68
2023/06/21 07:05:51;;;;;;;24.73;22.73;;;20.40;99.90;;;;;;5072705;28;20048;-69
2023/06/21 07:08:18;;;;;;;24.92;22.83;;;20.50;99.90;;;;;;5085182;28;20048;-69
2023/06/21 07:10:45;;;;;;;25.42;23.38;;;20.70;99.90;;;;;;5087715;28;20046;-68
2023/06/21 07:13:12;;;;;;;25.02;23.23;;;20.80;99.90;;;;;;5102470;28;20043;-68
2023/06/21 07:15:39;;;;;;;26.65;24.20;;;21.00;99.90;;;;;;5104380;28;20043;-68
2023/06/21 07:18:06;;;;;;;27.73;25.40;;;21.00;99.90;;;;;;5085005;28;20036;-68
2023/06/21 07:20:34;;;;;;;27.65;25.55;;;21.10;99.90;;;;;;5091110;28;20048;-68
2023/06/21 07:23:02;;;;;;;28.20;25.92;;;21.00;99.90;;;;;;5069309;28;20036;-69
2023/06/21 07:25:29;;;;;;;29.38;26.95;;;20.90;99.90;;;;;;5087039;28;20074;-69
2023/06/21 07:27:56;;;;;;;27.83;25.73;;;21.00;99.90;;;;;;5073979;28;21248;-69
2023/06/21 07:30:23;;;;;;;29.15;26.77;;;21.10;99.90;;;;;;5085964;28;20067;-68
2023/06/21 07:32:51;;;;;;;27.63;25.35;;;21.30;99.90;;;;;;5086348;28;20067;-68
2023/06/21 07:35:18;;;;;;;29.17;26.98;;;21.70;99.90;;;;;;5080487;28;20051;-68
2023/06/21 07:37:45;;;;;;;29.02;26.63;;;21.80;99.90;;;;;;5090001;28;20044;-69
2023/06/21 07:40:13;;;;;;;30.83;28.23;;;22.10;99.90;;;;;;5064865;28;20040;-69
2023/06/21 07:42:40;;;;;;;31.35;28.95;;;22.00;99.90;;;;;;5072397;28;20500;-68
2023/06/21 07:45:08;;;;;;;29.60;27.40;;;22.10;99.90;;;;;;5083908;28;20051;-68
2023/06/21 07:47:35;;;;;;;29.85;27.70;;;22.50;99.90;;;;;;5085232;28;20459;-68
2023/06/21 07:50:04;;;;;;;31.00;28.75;;;22.60;99.90;;;;;;5070889;28;20077;-68
2023/06/21 07:52:48;;;;;;;31.30;28.77;;;22.90;99.90;;;;;;5088016;28;20040;-69
2023/06/21 07:55:15;;;;;;;31.90;29.45;;;23.30;99.90;;;;;;5066687;28;20542;-68
2023/06/21 07:57:42;;;;;;;30.77;28.52;;;23.80;99.90;;;;;;5085456;28;20127;-68
2023/06/21 08:00:11;;;;;;;31.00;28.90;;;24.00;99.90;;;;;;5085257;28;20478;-68
2023/06/21 08:02:41;;;;;;;31.55;28.45;;;24.00;99.90;;;;;;5082787;28;20067;-69
2023/06/21 08:05:08;;;;;;;32.90;30.40;;;24.00;99.90;;;;;;5081554;28;20052;-69
2023/06/21 08:07:35;;;;;;;32.67;30.08;;;23.80;99.90;;;;;;5074476;28;20044;-69
2023/06/21 08:10:02;;;;;;;31.10;28.85;;;23.70;99.90;;;;;;5082656;28;20046;-67
2023/06/21 08:12:29;;;;;;;31.55;29.08;;;23.50;99.90;;;;;;5085268;28;20036;-68
2023/06/21 08:14:56;;;;;;;29.95;27.58;;;23.80;99.90;;;;;;5088172;28;20117;-69
2023/06/21 08:17:23;;;;;;;30.92;28.73;;;24.10;99.90;;;;;;5083800;28;20047;-68
2023/06/21 08:19:49;;;;;;;34.25;31.77;;;23.80;99.90;;;;;;5063603;28;20585;-69
2023/06/21 08:22:17;;;;;;;33.25;30.95;;;23.70;99.90;;;;;;5067096;28;20059;-71
2023/06/21 08:24:44;;;;;;;32.28;29.85;;;23.70;99.90;;;;;;5093840;28;20036;-72
2023/06/21 08:27:10;;;;;;;32.80;30.27;;;23.90;99.90;;;;;;5066834;28;20164;-71
2023/06/21 08:29:37;;;;;;;33.63;30.85;;;24.00;99.90;;;;;;5080974;28;20047;-71
2023/06/21 08:32:04;;;;;;;32.22;29.83;;;24.00;99.90;;;;;;5084967;28;20112;-72
2023/06/21 08:34:32;;;;;;;31.17;28.80;;;24.40;99.90;;;;;;5087411;28;20237;-70
2023/06/21 08:36:59;;;;;;;32.00;29.65;;;24.30;99.90;;;;;;5068294;28;20513;-70
2023/06/21 08:39:26;;;;;;;29.45;27.30;;;24.20;99.90;;;;;;5086716;28;20508;-72
2023/06/21 08:41:56;;;;;;;29.92;27.40;;;24.20;99.90;;;;;;5082754;28;20044;-70
2023/06/21 08:44:23;;;;;;;30.65;28.30;;;24.30;99.90;;;;;;5071411;28;20110;-70
2023/06/21 08:46:51;;;;;;;32.15;29.70;;;24.20;99.90;;;;;;5063648;28;20047;-70
2023/06/21 08:49:20;;;;;;;32.80;30.40;;;23.90;99.90;;;;;;5070096;28;20044;-71
2023/06/21 08:51:48;;;;;;;30.98;28.98;;;23.90;99.90;;;;;;5071296;28;20075;-70
2023/06/21 08:54:23;;;;;;;31.02;28.70;;;24.20;99.90;;;;;;5067927;28;20081;-70
2023/06/21 08:57:04;;;;;;;29.88;27.58;;;24.40;99.90;;;;;;5066757;28;20055;-70
2023/06/21 08:59:36;;;;;;;29.67;27.50;;;24.50;99.90;;;;;;5084500;28;20126;-70
2023/06/21 09:02:22;;;;;;;30.63;28.42;;;24.60;99.90;;;;;;5072747;28;20040;-69
2023/06/21 09:04:54;;;;;;;31.27;29.02;;;24.50;99.90;;;;;;5085184;28;20083;-70
2023/06/21 09:07:22;;;;;;;31.92;29.55;;;24.40;99.90;;;;;;5080065;28;20036;-70
2023/06/21 09:09:51;;;;;;;31.88;29.63;;;24.60;99.90;;;;;;5064512;28;20116;-70
2023/06/21 09:12:18;;;;;;;31.48;29.10;;;24.90;99.90;;;;;;5082111;28;20479;-71
2023/06/21 09:14:46;;;;;;;30.90;28.70;;;24.90;99.90;;;;;;5067829;28;20088;-70
2023/06/21 09:17:13;;;;;;;31.25;28.95;;;25.20;99.90;;;;;;5065335;28;20071;-71
2023/06/21 09:19:42;;;;;;;31.13;28.83;;;25.60;99.90;;;;;;5070470;28;20055;-71
2023/06/21 09:22:10;;;;;;;31.45;29.17;;;26.00;99.90;;;;;;5080974;28;20126;-69
2023/06/21 09:24:37;;;;;;;28.83;26.65;;;26.20;99.90;;;;;;5089971;28;20035;-73
2023/06/21 09:27:04;;;;;;;29.40;27.27;;;26.30;99.90;;;;;;5082051;28;20036;-72
2023/06/21 09:29:32;;;;;;;29.67;27.38;;;26.20;99.90;;;;;;5086984;28;20056;-70
2023/06/21 09:31:59;;;;;;;30.05;27.88;;;25.70;99.90;;;;;;5086700;28;20047;-70
2023/06/21 09:34:26;;;;;;;30.05;27.85;;;25.60;99.90;;;;;;5085973;28;21401;-72
2023/06/21 09:36:54;;;;;;;29.80;27.48;;;25.10;99.90;;;;;;5072679;28;20044;-69
2023/06/21 09:39:22;;;;;;;29.00;26.65;;;24.90;99.90;;;;;;5055999;28;20123;-72
2023/06/21 09:41:49;;;;;;;30.67;28.48;;;24.70;99.90;;;;;;5068944;28;20135;-70
2023/06/21 09:44:20;;;;;;;29.42;27.30;;;24.50;99.90;;;;;;5082258;28;20098;-71
2023/06/21 09:46:48;;;;;;;31.38;29.08;;;24.70;99.90;;;;;;5066526;28;20044;-71
2023/06/21 09:49:16;;;;;;;32.90;30.60;;;24.80;99.90;;;;;;5066910;28;20085;-69
2023/06/21 09:51:45;;;;;;;32.90;30.52;;;24.90;99.90;;;;;;5071390;28;20448;-71
2023/06/21 09:54:12;;;;;;;33.85;31.17;;;25.30;99.90;;;;;;5073793;28;20054;-71
2023/06/21 09:56:39;;;;;;;32.90;30.50;;;25.50;99.90;;;;;;5072217;28;20046;-72
2023/06/21 09:59:17;;;;;;;32.05;29.83;;;26.10;99.90;;;;;;5083445;28;20731;-74
2023/06/21 10:01:46;;;;;;;31.05;28.55;;;26.40;99.90;;;;;;5058216;28;20062;-72
2023/06/21 10:04:15;;;;;;;32.63;30.13;;;26.50;99.90;;;;;;5069898;28;20670;-71
2023/06/21 10:06:54;;;;;;;32.17;29.77;;;26.30;99.90;;;;;;5053157;28;20042;-71
2023/06/21 10:09:22;;;;;;;31.63;29.33;;;26.40;99.90;;;;;;5070762;28;20613;-71
2023/06/21 10:11:49;;;;;;;32.65;30.15;;;26.70;99.90;;;;;;5087837;28;20124;-71
2023/06/21 10:14:18;;;;;;;29.98;27.88;;;26.90;99.90;;;;;;5065962;28;20139;-72
2023/06/21 10:16:49;;;;;;;29.70;27.60;;;26.90;99.90;;;;;;5073825;28;20160;-71
2023/06/21 10:19:20;;;;;;;32.20;30.02;;;26.70;99.90;;;;;;5075021;28;20643;-72
2023/06/21 10:21:51;;;;;;;33.28;30.90;;;26.70;99.90;;;;;;5078785;28;20074;-71
2023/06/21 10:24:20;;;;;;;31.92;29.63;;;26.80;99.90;;;;;;5074079;28;20120;-71
2023/06/21 10:26:49;;;;;;;31.42;29.13;;;27.00;99.90;;;;;;5088884;28;20505;-70
2023/06/21 10:29:17;;;;;;;31.88;29.48;;;27.40;99.90;;;;;;5076104;28;20067;-70
2023/06/21 10:31:48;;;;;;;32.05;29.58;;;27.60;99.90;;;;;;5093093;28;20051;-71
2023/06/21 10:34:19;;;;;;;30.23;28.02;;;27.80;99.90;;;;;;5071185;28;20092;-71
2023/06/21 10:36:50;;;;;;;33.38;31.08;;;27.70;99.90;;;;;;5091231;28;20040;-72
2023/06/21 10:39:20;;;;;;;30.35;28.17;;;27.70;99.90;;;;;;5071089;28;20101;-72
2023/06/21 10:41:48;;;;;;;28.92;26.92;;;27.40;99.90;;;;;;5089727;28;20089;-71
2023/06/21 10:44:17;;;;;;;31.40;29.10;;;27.10;99.90;;;;;;5086631;28;20040;-72
2023/06/21 10:46:50;;;;;;;30.73;28.52;;;26.60;99.90;;;;;;5088328;28;20044;-69
2023/06/21 10:49:18;;;;;;;33.10;30.70;;;26.30;99.90;;;;;;5065638;28;20048;-74
2023/06/21 10:51:46;;;;;;;37.08;34.15;;;26.30;99.90;;;;;;5087619;28;20530;-73
2023/06/21 10:54:16;;;;;;;35.47;33.08;;;26.30;99.90;;;;;;5072480;28;20051;-72
2023/06/21 10:56:43;;;;;;;35.22;32.53;;;26.50;99.90;;;;;;5089268;28;20067;-73
2023/06/21 10:59:11;;;;;;;32.58;30.48;;;26.80;99.90;;;;;;5073188;28;20040;-71
2023/06/21 11:01:38;;;;;;;35.60;33.30;;;27.20;99.90;;;;;;5086368;28;20062;-71
2023/06/21 11:04:05;;;;;;;35.67;33.22;;;27.30;99.90;;;;;;5073080;28;20028;-72
2023/06/21 11:06:37;;;;;;;34.08;31.75;;;27.30;99.90;;;;;;5083070;28;20058;-71
2023/06/21 11:09:10;;;;;;;33.65;31.48;;;27.30;99.90;;;;;;5090710;28;20051;-71
2023/06/21 11:11:40;;;;;;;33.85;31.55;;;27.40;99.90;;;;;;5072428;28;20044;-72
2023/06/21 11:14:07;;;;;;;34.42;32.13;;;27.60;99.90;;;;;;5072188;28;20052;-72
2023/06/21 11:16:36;;;;;;;33.08;30.67;;;27.50;99.90;;;;;;5077616;28;20290;-72
2023/06/21 11:19:08;;;;;;;34.00;31.48;;;27.40;99.90;;;;;;5106206;28;20036;-72
2023/06/21 11:21:46;;;;;;;36.05;33.47;;;27.10;99.90;;;;;;5095065;28;20055;-71
2023/06/21 11:24:20;;;;;;;36.10;33.45;;;27.00;99.90;;;;;;5081166;28;20048;-69
2023/06/21 11:26:57;;;;;;;33.20;30.80;;;27.00;99.90;;;;;;5097652;28;20070;-72
2023/06/21 11:29:26;;;;;;;32.25;29.85;;;27.30;99.90;;;;;;5087502;28;20109;-72
2023/06/21 11:32:10;;;;;;;33.85;31.33;;;27.50;99.90;;;;;;5088838;28;20040;-72
2023/06/21 11:34:50;;;;;;;32.93;30.57;;;27.30;99.90;;;;;;5087004;28;20040;-71
2023/06/21 11:37:39;;;;;;;33.25;30.85;;;27.20;99.90;;;;;;5069459;28;20055;-70
2023/06/21 11:40:09;;;;;;;32.75;30.55;;;27.00;99.90;;;;;;5074170;28;20044;-71
2023/06/21 11:42:42;;;;;;;33.47;30.85;;;26.90;99.90;;;;;;5082788;28;20097;-70
2023/06/21 11:45:35;;;;;;;32.97;30.65;;;26.80;99.90;;;;;;5075962;28;21638;-70
2023/06/21 11:48:02;;;;;;;31.02;28.75;;;26.80;99.90;;;;;;5068847;28;20040;-72
2023/06/21 11:50:42;;;;;;;33.60;31.00;;;26.70;99.90;;;;;;5072582;28;20067;-70
2023/06/21 11:53:20;;;;;;;31.48;29.15;;;26.70;99.90;;;;;;5074826;28;20075;-70
2023/06/21 11:55:50;;;;;;;32.22;29.85;;;26.70;99.90;;;;;;5071278;28;20057;-70
2023/06/21 11:58:17;;;;;;;31.58;29.00;;;26.90;99.90;;;;;;5082098;28;20047;-71
2023/06/21 12:00:46;;;;;;;35.78;33.38;;;26.80;99.90;;;;;;5083658;28;20052;-72
2023/06/21 12:03:13;;;;;;;31.85;29.52;;;26.80;99.90;;;;;;5080975;28;20605;-70
2023/06/21 12:05:54;;;;;;;33.13;30.10;;;26.80;99.90;;;;;;5075520;28;20046;-70
2023/06/21 12:08:25;;;;;;;34.10;31.60;;;26.80;99.90;;;;;;5084966;28;20126;-72
2023/06/21 12:10:52;;;;;;;35.33;32.80;;;26.60;99.90;;;;;;5054823;28;20055;-72
2023/06/21 12:13:20;;;;;;;32.08;29.60;;;26.50;99.90;;;;;;5071895;28;20100;-71
2023/06/21 12:15:52;;;;;;;30.23;27.83;;;26.50;99.90;;;;;;5074130;28;20035;-72
2023/06/21 12:18:20;;;;;;;33.00;30.58;;;26.60;99.90;;;;;;5082757;28;20051;-71
2023/06/21 12:20:48;;;;;;;31.63;29.23;;;26.40;99.90;;;;;;5058096;28;20044;-71
2023/06/21 12:23:20;;;;;;;35.58;32.97;;;26.40;99.90;;;;;;5072467;28;20058;-71
2023/06/21 12:25:49;;;;;;;36.97;34.28;;;26.30;99.90;;;;;;5068827;28;20064;-71
2023/06/21 12:28:18;;;;;;;34.55;32.15;;;26.40;99.90;;;;;;5069243;28;20051;-71
2023/06/21 12:31:02;;;;;;;37.50;35.00;;;26.70;99.90;;;;;;5085540;28;20048;-72
2023/06/21 12:33:31;;;;;;;37.35;34.85;;;26.90;99.90;;;;;;5085322;28;20048;-73
2023/06/21 12:36:18;;;;;;;35.10;32.80;;;26.90;99.90;;;;;;5065662;28;20138;-71